sensor_id;sensor_type;location;lat;lon;timestamp;temperature;humidity
64654;DHT22;51065;48.884;12.598;2022-11-04T00:01:53;8.90;99.90
64654;DHT22;51065;48.884;12.598;2022-11-04T00:04:21;8.90;99.90
64654;DHT22;51065;48.884;12.598;2022-11-04T00:06:47;9.00;99.90
64654;DHT22;51065;48.884;12.598;2022-11-04T00:09:22;9.00;99.90
64654;DHT22;51065;48.884;12.598;2022-11-04T00:11:48;9.00;99.90
64654;DHT22;51065;48.884;12.598;2022-11-04T00:14:32;9.10;99.90
64654;DHT22;51065;48.884;12.598;2022-11-04T00:16:59;9.30;99.90
64654;DHT22;51065;48.884;12.598;2022-11-04T00:19:44;9.30;99.90
64654;DHT22;51065;48.884;12.598;2022-11-04T00:22:28;9.40;99.90
64654;DHT22;51065;48.884;12.598;2022-11-04T00:25:12;9.60;99.90
64654;DHT22;51065;48.884;12.598;2022-11-04T00:28:04;9.70;99.90
64654;DHT22;51065;48.884;12.598;2022-11-04T00:30:52;9.80;99.90
64654;DHT22;51065;48.884;12.598;2022-11-04T00:33:18;9.80;99.90
64654;DHT22;51065;48.884;12.598;2022-11-04T00:35:52;9.90;99.90
64654;DHT22;51065;48.884;12.598;2022-11-04T00:38:18;10.00;99.90
64654;DHT22;51065;48.884;12.598;2022-11-04T00:40:44;10.10;99.90
64654;DHT22;51065;48.884;12.598;2022-11-04T00:43:10;10.20;99.90
64654;DHT22;51065;48.884;12.598;2022-11-04T00:45:35;10.20;99.90
64654;DHT22;51065;48.884;12.598;2022-11-04T00:48:01;10.20;99.90
64654;DHT22;51065;48.884;12.598;2022-11-04T00:50:27;10.10;99.90
64654;DHT22;51065;48.884;12.598;2022-11-04T00:53:00;10.10;99.90
64654;DHT22;51065;48.884;12.598;2022-11-04T00:55:27;10.00;99.90
64654;DHT22;51065;48.884;12.598;2022-11-04T00:57:53;10.00;99.90
64654;DHT22;51065;48.884;12.598;2022-11-04T01:00:18;9.90;99.90
64654;DHT22;51065;48.884;12.598;2022-11-04T01:02:45;9.80;99.90
64654;DHT22;51065;48.884;12.598;2022-11-04T01:05:10;9.70;99.90
64654;DHT22;51065;48.884;12.598;2022-11-04T01:07:36;9.70;99.90
64654;DHT22;51065;48.884;12.598;2022-11-04T01:10:02;9.70;99.90
64654;DHT22;51065;48.884;12.598;2022-11-04T01:12:28;9.60;99.90
64654;DHT22;51065;48.884;12.598;2022-11-04T01:14:53;9.60;99.90
64654;DHT22;51065;48.884;12.598;2022-11-04T01:17:19;9.50;99.90
64654;DHT22;51065;48.884;12.598;2022-11-04T01:19:45;9.50;99.90
64654;DHT22;51065;48.884;12.598;2022-11-04T01:22:10;9.50;99.90
64654;DHT22;51065;48.884;12.598;2022-11-04T01:24:36;9.50;99.90
64654;DHT22;51065;48.884;12.598;2022-11-04T01:27:02;9.50;99.90
64654;DHT22;51065;48.884;12.598;2022-11-04T01:29:27;9.50;99.90
64654;DHT22;51065;48.884;12.598;2022-11-04T01:31:53;9.50;99.90
64654;DHT22;51065;48.884;12.598;2022-11-04T01:34:18;9.50;99.90
64654;DHT22;51065;48.884;12.598;2022-11-04T01:36:44;9.60;99.90
64654;DHT22;51065;48.884;12.598;2022-11-04T01:39:11;9.50;99.90
64654;DHT22;51065;48.884;12.598;2022-11-04T01:41:38;9.50;99.90
64654;DHT22;51065;48.884;12.598;2022-11-04T01:49:49;9.60;99.90
64654;DHT22;51065;48.884;12.598;2022-11-04T01:52:25;9.60;99.90
64654;DHT22;51065;48.884;12.598;2022-11-04T01:54:54;9.60;99.90
64654;DHT22;51065;48.884;12.598;2022-11-04T01:57:30;9.60;99.90
64654;DHT22;51065;48.884;12.598;2022-11-04T02:00:00;9.70;99.90
64654;DHT22;51065;48.884;12.598;2022-11-04T02:02:27;9.80;99.90
64654;DHT22;51065;48.884;12.598;2022-11-04T02:04:53;9.90;99.90
64654;DHT22;51065;48.884;12.598;2022-11-04T02:07:18;9.90;99.90
64654;DHT22;51065;48.884;12.598;2022-11-04T02:09:44;10.00;99.90
64654;DHT22;51065;48.884;12.598;2022-11-04T02:12:10;10.10;99.90
64654;DHT22;51065;48.884;12.598;2022-11-04T02:14:55;10.20;99.90
64654;DHT22;51065;48.884;12.598;2022-11-04T02:17:31;10.30;99.90
64654;DHT22;51065;48.884;12.598;2022-11-04T02:31:33;10.30;99.90
64654;DHT22;51065;48.884;12.598;2022-11-04T02:37:00;10.00;99.90
64654;DHT22;51065;48.884;12.598;2022-11-04T02:42:03;9.90;99.90
64654;DHT22;51065;48.884;12.598;2022-11-04T02:44:43;9.90;99.90
64654;DHT22;51065;48.884;12.598;2022-11-04T02:47:15;9.80;99.90
64654;DHT22;51065;48.884;12.598;2022-11-04T02:49:51;9.80;99.90
64654;DHT22;51065;48.884;12.598;2022-11-04T02:52:40;9.80;99.90
64654;DHT22;51065;48.884;12.598;2022-11-04T02:55:37;9.80;99.90
64654;DHT22;51065;48.884;12.598;2022-11-04T02:58:02;9.70;99.90
64654;DHT22;51065;48.884;12.598;2022-11-04T03:00:30;9.70;99.90
64654;DHT22;51065;48.884;12.598;2022-11-04T03:03:18;9.70;99.90
64654;DHT22;51065;48.884;12.598;2022-11-04T03:05:48;9.70;99.90
64654;DHT22;51065;48.884;12.598;2022-11-04T03:08:24;9.60;99.90
64654;DHT22;51065;48.884;12.598;2022-11-04T03:11:19;9.60;99.90
64654;DHT22;51065;48.884;12.598;2022-11-04T03:16:21;9.60;99.90
64654;DHT22;51065;48.884;12.598;2022-11-04T03:21:35;9.60;99.90
64654;DHT22;51065;48.884;12.598;2022-11-04T03:24:02;9.50;99.90
64654;DHT22;51065;48.884;12.598;2022-11-04T03:26:43;9.50;99.90
64654;DHT22;51065;48.884;12.598;2022-11-04T03:29:55;9.50;99.90
64654;DHT22;51065;48.884;12.598;2022-11-04T03:34:36;9.50;99.90
64654;DHT22;51065;48.884;12.598;2022-11-04T03:37:02;9.50;99.90
64654;DHT22;51065;48.884;12.598;2022-11-04T03:39:28;9.40;99.90
64654;DHT22;51065;48.884;12.598;2022-11-04T03:41:59;9.40;99.90
64654;DHT22;51065;48.884;12.598;2022-11-04T03:44:27;9.40;99.90
64654;DHT22;51065;48.884;12.598;2022-11-04T03:46:54;9.40;99.90
64654;DHT22;51065;48.884;12.598;2022-11-04T03:49:21;9.40;99.90
64654;DHT22;51065;48.884;12.598;2022-11-04T03:51:47;9.40;99.90
64654;DHT22;51065;48.884;12.598;2022-11-04T03:54:13;9.40;99.90
64654;DHT22;51065;48.884;12.598;2022-11-04T04:00:09;9.30;99.90
64654;DHT22;51065;48.884;12.598;2022-11-04T04:03:01;9.30;99.90
64654;DHT22;51065;48.884;12.598;2022-11-04T04:05:54;9.30;99.90
64654;DHT22;51065;48.884;12.598;2022-11-04T04:08:38;9.40;99.90
64654;DHT22;51065;48.884;12.598;2022-11-04T04:11:30;9.30;99.90
64654;DHT22;51065;48.884;12.598;2022-11-04T04:14:14;9.40;99.90
64654;DHT22;51065;48.884;12.598;2022-11-04T04:17:22;9.30;99.90
64654;DHT22;51065;48.884;12.598;2022-11-04T04:20:03;9.30;99.90
64654;DHT22;51065;48.884;12.598;2022-11-04T04:22:33;9.30;99.90
64654;DHT22;51065;48.884;12.598;2022-11-04T04:25:03;9.30;99.90
64654;DHT22;51065;48.884;12.598;2022-11-04T04:27:50;9.30;99.90
64654;DHT22;51065;48.884;12.598;2022-11-04T04:30:17;9.30;99.90
64654;DHT22;51065;48.884;12.598;2022-11-04T04:35:09;9.30;99.90
64654;DHT22;51065;48.884;12.598;2022-11-04T04:37:55;9.30;99.90
64654;DHT22;51065;48.884;12.598;2022-11-04T04:40:56;9.30;99.90
64654;DHT22;51065;48.884;12.598;2022-11-04T04:43:42;9.20;99.90
64654;DHT22;51065;48.884;12.598;2022-11-04T04:46:28;9.20;99.90
64654;DHT22;51065;48.884;12.598;2022-11-04T04:48:54;9.20;99.90
64654;DHT22;51065;48.884;12.598;2022-11-04T04:51:20;9.20;99.90
64654;DHT22;51065;48.884;12.598;2022-11-04T04:53:46;9.20;99.90
64654;DHT22;51065;48.884;12.598;2022-11-04T04:56:11;9.20;99.90
64654;DHT22;51065;48.884;12.598;2022-11-04T04:58:37;9.20;99.90
64654;DHT22;51065;48.884;12.598;2022-11-04T05:01:03;9.30;99.90
64654;DHT22;51065;48.884;12.598;2022-11-04T05:03:29;9.20;99.90
64654;DHT22;51065;48.884;12.598;2022-11-04T05:05:54;9.20;99.90
64654;DHT22;51065;48.884;12.598;2022-11-04T05:08:23;9.20;99.90
64654;DHT22;51065;48.884;12.598;2022-11-04T05:10:48;9.20;99.90
64654;DHT22;51065;48.884;12.598;2022-11-04T05:13:14;9.20;99.90
64654;DHT22;51065;48.884;12.598;2022-11-04T05:15:52;9.20;99.90
64654;DHT22;51065;48.884;12.598;2022-11-04T05:18:18;9.10;99.90
64654;DHT22;51065;48.884;12.598;2022-11-04T05:20:44;9.10;99.90
64654;DHT22;51065;48.884;12.598;2022-11-04T05:23:10;9.10;99.90
64654;DHT22;51065;48.884;12.598;2022-11-04T05:25:40;9.00;99.90
64654;DHT22;51065;48.884;12.598;2022-11-04T05:28:06;9.00;99.90
64654;DHT22;51065;48.884;12.598;2022-11-04T05:30:34;9.10;99.90
64654;DHT22;51065;48.884;12.598;2022-11-04T05:33:00;9.10;99.90
64654;DHT22;51065;48.884;12.598;2022-11-04T05:35:26;9.10;99.90
64654;DHT22;51065;48.884;12.598;2022-11-04T05:37:52;9.00;99.90
64654;DHT22;51065;48.884;12.598;2022-11-04T05:40:19;9.00;99.90
64654;DHT22;51065;48.884;12.598;2022-11-04T05:42:44;9.00;99.90
64654;DHT22;51065;48.884;12.598;2022-11-04T05:45:10;8.90;99.90
64654;DHT22;51065;48.884;12.598;2022-11-04T05:47:35;8.90;99.90
64654;DHT22;51065;48.884;12.598;2022-11-04T05:50:01;8.90;99.90
64654;DHT22;51065;48.884;12.598;2022-11-04T05:52:27;8.90;99.90
64654;DHT22;51065;48.884;12.598;2022-11-04T05:54:52;8.90;99.90
64654;DHT22;51065;48.884;12.598;2022-11-04T05:57:18;8.90;99.90
64654;DHT22;51065;48.884;12.598;2022-11-04T05:59:43;9.00;99.90
64654;DHT22;51065;48.884;12.598;2022-11-04T06:02:09;8.90;99.90
64654;DHT22;51065;48.884;12.598;2022-11-04T06:04:34;9.00;99.90
64654;DHT22;51065;48.884;12.598;2022-11-04T06:07:00;9.00;99.90
64654;DHT22;51065;48.884;12.598;2022-11-04T06:09:26;9.00;99.90
64654;DHT22;51065;48.884;12.598;2022-11-04T06:12:14;9.10;99.90
64654;DHT22;51065;48.884;12.598;2022-11-04T06:14:43;9.10;99.90
64654;DHT22;51065;48.884;12.598;2022-11-04T06:17:16;9.10;99.90
64654;DHT22;51065;48.884;12.598;2022-11-04T06:19:43;9.20;99.90
64654;DHT22;51065;48.884;12.598;2022-11-04T06:22:10;9.20;99.90
64654;DHT22;51065;48.884;12.598;2022-11-04T06:24:36;9.20;99.90
64654;DHT22;51065;48.884;12.598;2022-11-04T06:27:02;9.20;99.90
64654;DHT22;51065;48.884;12.598;2022-11-04T06:29:28;9.20;99.90
64654;DHT22;51065;48.884;12.598;2022-11-04T06:31:53;9.20;99.90
64654;DHT22;51065;48.884;12.598;2022-11-04T06:34:19;9.30;99.90
64654;DHT22;51065;48.884;12.598;2022-11-04T06:36:44;9.30;99.90
64654;DHT22;51065;48.884;12.598;2022-11-04T06:39:10;9.30;99.90
64654;DHT22;51065;48.884;12.598;2022-11-04T06:41:36;9.30;99.90
64654;DHT22;51065;48.884;12.598;2022-11-04T06:44:02;9.30;99.90
64654;DHT22;51065;48.884;12.598;2022-11-04T06:46:40;9.30;99.90
64654;DHT22;51065;48.884;12.598;2022-11-04T06:49:18;9.40;99.90
64654;DHT22;51065;48.884;12.598;2022-11-04T06:51:45;9.40;99.90
64654;DHT22;51065;48.884;12.598;2022-11-04T06:54:11;9.40;99.90
64654;DHT22;51065;48.884;12.598;2022-11-04T06:56:36;9.50;99.90
64654;DHT22;51065;48.884;12.598;2022-11-04T06:59:02;9.50;99.90
64654;DHT22;51065;48.884;12.598;2022-11-04T07:01:30;9.50;99.90
64654;DHT22;51065;48.884;12.598;2022-11-04T07:03:58;9.50;99.90
64654;DHT22;51065;48.884;12.598;2022-11-04T07:06:25;9.50;99.90
64654;DHT22;51065;48.884;12.598;2022-11-04T07:08:52;9.50;99.90
64654;DHT22;51065;48.884;12.598;2022-11-04T07:11:19;9.50;99.90
64654;DHT22;51065;48.884;12.598;2022-11-04T07:13:46;9.60;99.90
64654;DHT22;51065;48.884;12.598;2022-11-04T07:16:11;9.60;99.90
64654;DHT22;51065;48.884;12.598;2022-11-04T07:18:37;9.60;99.90
64654;DHT22;51065;48.884;12.598;2022-11-04T07:21:03;9.60;99.90
64654;DHT22;51065;48.884;12.598;2022-11-04T07:23:29;9.60;99.90
64654;DHT22;51065;48.884;12.598;2022-11-04T07:26:06;9.60;99.90
64654;DHT22;51065;48.884;12.598;2022-11-04T07:28:32;9.60;99.90
64654;DHT22;51065;48.884;12.598;2022-11-04T07:30:59;9.60;99.90
64654;DHT22;51065;48.884;12.598;2022-11-04T07:33:25;9.50;99.90
64654;DHT22;51065;48.884;12.598;2022-11-04T07:35:52;9.40;99.90
64654;DHT22;51065;48.884;12.598;2022-11-04T07:38:21;9.30;99.90
64654;DHT22;51065;48.884;12.598;2022-11-04T07:40:47;9.20;99.90
64654;DHT22;51065;48.884;12.598;2022-11-04T07:43:14;9.20;99.90
64654;DHT22;51065;48.884;12.598;2022-11-04T07:45:39;9.10;99.90
64654;DHT22;51065;48.884;12.598;2022-11-04T07:48:05;9.10;99.90
64654;DHT22;51065;48.884;12.598;2022-11-04T07:50:31;9.00;99.90
64654;DHT22;51065;48.884;12.598;2022-11-04T07:52:58;9.00;99.90
64654;DHT22;51065;48.884;12.598;2022-11-04T07:55:24;9.00;99.90
64654;DHT22;51065;48.884;12.598;2022-11-04T07:57:50;9.00;99.90
64654;DHT22;51065;48.884;12.598;2022-11-04T08:00:16;9.00;99.90
64654;DHT22;51065;48.884;12.598;2022-11-04T08:02:42;9.00;99.90
64654;DHT22;51065;48.884;12.598;2022-11-04T08:05:11;9.00;99.90
64654;DHT22;51065;48.884;12.598;2022-11-04T08:07:37;9.00;99.90
64654;DHT22;51065;48.884;12.598;2022-11-04T08:10:03;8.90;99.90
64654;DHT22;51065;48.884;12.598;2022-11-04T08:12:30;8.90;99.90
64654;DHT22;51065;48.884;12.598;2022-11-04T08:14:57;8.90;99.90
64654;DHT22;51065;48.884;12.598;2022-11-04T08:17:23;8.80;99.90
64654;DHT22;51065;48.884;12.598;2022-11-04T08:19:48;8.80;99.90
64654;DHT22;51065;48.884;12.598;2022-11-04T08:22:14;8.80;99.90
64654;DHT22;51065;48.884;12.598;2022-11-04T08:24:39;8.80;99.90
64654;DHT22;51065;48.884;12.598;2022-11-04T08:27:05;8.80;99.90
64654;DHT22;51065;48.884;12.598;2022-11-04T08:29:34;8.80;99.90
64654;DHT22;51065;48.884;12.598;2022-11-04T08:32:00;8.90;99.90
64654;DHT22;51065;48.884;12.598;2022-11-04T08:34:26;8.90;99.90
64654;DHT22;51065;48.884;12.598;2022-11-04T08:36:52;8.90;99.90
64654;DHT22;51065;48.884;12.598;2022-11-04T08:39:18;8.90;99.90
64654;DHT22;51065;48.884;12.598;2022-11-04T08:41:44;9.00;99.90
64654;DHT22;51065;48.884;12.598;2022-11-04T08:44:13;9.00;99.90
64654;DHT22;51065;48.884;12.598;2022-11-04T08:46:40;9.00;99.90
64654;DHT22;51065;48.884;12.598;2022-11-04T08:49:07;9.10;99.90
64654;DHT22;51065;48.884;12.598;2022-11-04T08:51:34;9.10;99.90
64654;DHT22;51065;48.884;12.598;2022-11-04T08:54:02;9.10;99.90
64654;DHT22;51065;48.884;12.598;2022-11-04T08:56:30;9.20;99.90
64654;DHT22;51065;48.884;12.598;2022-11-04T08:58:59;9.20;99.90
64654;DHT22;51065;48.884;12.598;2022-11-04T09:01:27;9.30;99.90
64654;DHT22;51065;48.884;12.598;2022-11-04T09:03:53;9.30;99.90
64654;DHT22;51065;48.884;12.598;2022-11-04T09:06:28;9.30;99.90
64654;DHT22;51065;48.884;12.598;2022-11-04T09:08:54;9.30;99.90
64654;DHT22;51065;48.884;12.598;2022-11-04T09:11:22;9.30;99.90
64654;DHT22;51065;48.884;12.598;2022-11-04T09:13:49;9.40;99.90
64654;DHT22;51065;48.884;12.598;2022-11-04T09:16:15;9.40;99.90
64654;DHT22;51065;48.884;12.598;2022-11-04T09:18:41;9.60;99.90
64654;DHT22;51065;48.884;12.598;2022-11-04T09:21:08;9.70;99.90
64654;DHT22;51065;48.884;12.598;2022-11-04T09:23:34;9.80;99.90
64654;DHT22;51065;48.884;12.598;2022-11-04T09:26:12;9.70;99.90
64654;DHT22;51065;48.884;12.598;2022-11-04T09:28:39;9.70;99.90
64654;DHT22;51065;48.884;12.598;2022-11-04T09:31:14;9.70;99.90
64654;DHT22;51065;48.884;12.598;2022-11-04T09:33:41;9.70;99.90
64654;DHT22;51065;48.884;12.598;2022-11-04T09:36:08;9.60;99.90
64654;DHT22;51065;48.884;12.598;2022-11-04T09:38:39;9.60;99.90
64654;DHT22;51065;48.884;12.598;2022-11-04T09:41:35;9.60;99.90
64654;DHT22;51065;48.884;12.598;2022-11-04T09:46:39;9.70;99.90
64654;DHT22;51065;48.884;12.598;2022-11-04T09:49:09;9.80;99.90
64654;DHT22;51065;48.884;12.598;2022-11-04T09:51:37;9.90;99.90
64654;DHT22;51065;48.884;12.598;2022-11-04T09:54:41;10.10;99.90
64654;DHT22;51065;48.884;12.598;2022-11-04T09:57:15;10.20;99.90
64654;DHT22;51065;48.884;12.598;2022-11-04T09:59:41;10.10;99.90
64654;DHT22;51065;48.884;12.598;2022-11-04T10:08:01;10.10;99.90
64654;DHT22;51065;48.884;12.598;2022-11-04T10:10:55;10.10;99.90
64654;DHT22;51065;48.884;12.598;2022-11-04T10:13:45;9.90;99.90
64654;DHT22;51065;48.884;12.598;2022-11-04T10:16:31;9.90;99.90
64654;DHT22;51065;48.884;12.598;2022-11-04T10:19:14;9.90;99.90
64654;DHT22;51065;48.884;12.598;2022-11-04T10:22:10;9.80;99.90
64654;DHT22;51065;48.884;12.598;2022-11-04T10:24:40;9.90;99.90
64654;DHT22;51065;48.884;12.598;2022-11-04T10:27:16;9.80;99.90
64654;DHT22;51065;48.884;12.598;2022-11-04T10:30:26;9.90;99.90
64654;DHT22;51065;48.884;12.598;2022-11-04T10:32:43;10.00;99.90
64654;DHT22;51065;48.884;12.598;2022-11-04T10:37:38;10.30;99.90
64654;DHT22;51065;48.884;12.598;2022-11-04T10:40:23;10.30;99.90
64654;DHT22;51065;48.884;12.598;2022-11-04T10:42:54;10.40;99.90
64654;DHT22;51065;48.884;12.598;2022-11-04T10:45:35;10.30;99.90
64654;DHT22;51065;48.884;12.598;2022-11-04T10:48:11;10.30;99.90
64654;DHT22;51065;48.884;12.598;2022-11-04T10:50:53;10.40;99.90
64654;DHT22;51065;48.884;12.598;2022-11-04T10:53:26;10.40;99.90
64654;DHT22;51065;48.884;12.598;2022-11-04T10:58:46;10.30;99.90
64654;DHT22;51065;48.884;12.598;2022-11-04T11:01:33;10.40;99.90
64654;DHT22;51065;48.884;12.598;2022-11-04T11:03:59;10.50;99.90
64654;DHT22;51065;48.884;12.598;2022-11-04T11:06:29;10.70;99.90
64654;DHT22;51065;48.884;12.598;2022-11-04T11:09:11;10.80;99.90
64654;DHT22;51065;48.884;12.598;2022-11-04T11:11:49;10.90;99.90
64654;DHT22;51065;48.884;12.598;2022-11-04T11:14:36;11.00;99.90
64654;DHT22;51065;48.884;12.598;2022-11-04T11:19:56;11.10;99.90
64654;DHT22;51065;48.884;12.598;2022-11-04T11:22:37;11.20;99.90
64654;DHT22;51065;48.884;12.598;2022-11-04T11:27:59;11.10;99.90
64654;DHT22;51065;48.884;12.598;2022-11-04T11:30:26;11.20;99.90
64654;DHT22;51065;48.884;12.598;2022-11-04T11:32:56;11.00;99.90
64654;DHT22;51065;48.884;12.598;2022-11-04T11:35:26;11.00;99.90
64654;DHT22;51065;48.884;12.598;2022-11-04T11:37:54;11.00;99.90
64654;DHT22;51065;48.884;12.598;2022-11-04T11:40:31;11.00;99.90
64654;DHT22;51065;48.884;12.598;2022-11-04T11:43:00;10.90;99.90
64654;DHT22;51065;48.884;12.598;2022-11-04T11:45:27;10.80;99.90
64654;DHT22;51065;48.884;12.598;2022-11-04T11:47:53;10.70;99.90
64654;DHT22;51065;48.884;12.598;2022-11-04T11:50:24;10.60;99.90
64654;DHT22;51065;48.884;12.598;2022-11-04T11:53:16;10.40;99.90
64654;DHT22;51065;48.884;12.598;2022-11-04T11:55:49;10.30;99.90
64654;DHT22;51065;48.884;12.598;2022-11-04T11:58:41;10.30;99.90
64654;DHT22;51065;48.884;12.598;2022-11-04T12:01:16;10.30;99.90
64654;DHT22;51065;48.884;12.598;2022-11-04T12:03:45;10.30;99.90
64654;DHT22;51065;48.884;12.598;2022-11-04T12:06:29;10.40;99.90
64654;DHT22;51065;48.884;12.598;2022-11-04T12:14:53;10.70;99.90
64654;DHT22;51065;48.884;12.598;2022-11-04T12:28:18;10.40;99.90
64654;DHT22;51065;48.884;12.598;2022-11-04T12:31:18;10.40;99.90
64654;DHT22;51065;48.884;12.598;2022-11-04T12:42:12;10.30;99.90
64654;DHT22;51065;48.884;12.598;2022-11-04T12:44:51;10.30;99.90
64654;DHT22;51065;48.884;12.598;2022-11-04T12:47:36;10.30;99.90
64654;DHT22;51065;48.884;12.598;2022-11-04T12:50:05;10.30;99.90
64654;DHT22;51065;48.884;12.598;2022-11-04T12:55:34;10.40;99.90
64654;DHT22;51065;48.884;12.598;2022-11-04T13:00:53;10.10;99.90
64654;DHT22;51065;48.884;12.598;2022-11-04T13:03:28;10.00;99.90
64654;DHT22;51065;48.884;12.598;2022-11-04T13:06:11;9.90;99.90
64654;DHT22;51065;48.884;12.598;2022-11-04T13:08:50;9.80;99.90
64654;DHT22;51065;48.884;12.598;2022-11-04T13:11:19;9.80;99.90
64654;DHT22;51065;48.884;12.598;2022-11-04T13:14:01;9.70;99.90
64654;DHT22;51065;48.884;12.598;2022-11-04T13:16:30;9.60;99.90
64654;DHT22;51065;48.884;12.598;2022-11-04T13:18:59;9.60;99.90
64654;DHT22;51065;48.884;12.598;2022-11-04T13:21:27;9.50;99.90
64654;DHT22;51065;48.884;12.598;2022-11-04T13:24:05;9.30;99.90
64654;DHT22;51065;48.884;12.598;2022-11-04T13:26:35;9.20;99.90
64654;DHT22;51065;48.884;12.598;2022-11-04T13:29:15;9.20;99.90
64654;DHT22;51065;48.884;12.598;2022-11-04T13:32:15;9.20;99.90
64654;DHT22;51065;48.884;12.598;2022-11-04T13:35:03;9.10;99.90
64654;DHT22;51065;48.884;12.598;2022-11-04T13:37:47;9.00;99.90
64654;DHT22;51065;48.884;12.598;2022-11-04T13:40:19;9.10;99.90
64654;DHT22;51065;48.884;12.598;2022-11-04T13:45:54;9.00;99.90
64654;DHT22;51065;48.884;12.598;2022-11-04T13:48:23;9.00;99.90
64654;DHT22;51065;48.884;12.598;2022-11-04T13:51:03;9.00;99.90
64654;DHT22;51065;48.884;12.598;2022-11-04T13:56:37;9.10;99.90
64654;DHT22;51065;48.884;12.598;2022-11-04T13:59:17;9.00;99.90
64654;DHT22;51065;48.884;12.598;2022-11-04T14:01:44;9.00;99.90
64654;DHT22;51065;48.884;12.598;2022-11-04T14:09:32;9.00;99.90
64654;DHT22;51065;48.884;12.598;2022-11-04T14:14:40;8.90;99.90
64654;DHT22;51065;48.884;12.598;2022-11-04T14:20:10;8.90;99.90
64654;DHT22;51065;48.884;12.598;2022-11-04T14:22:57;8.90;99.90
64654;DHT22;51065;48.884;12.598;2022-11-04T14:25:40;8.90;99.90
64654;DHT22;51065;48.884;12.598;2022-11-04T14:30:43;8.80;99.90
64654;DHT22;51065;48.884;12.598;2022-11-04T14:33:37;8.80;99.90
64654;DHT22;51065;48.884;12.598;2022-11-04T14:36:16;8.70;99.90
64654;DHT22;51065;48.884;12.598;2022-11-04T14:39:30;8.60;99.90
64654;DHT22;51065;48.884;12.598;2022-11-04T14:52:48;8.50;99.90
64654;DHT22;51065;48.884;12.598;2022-11-04T14:54:55;8.40;99.90
64654;DHT22;51065;48.884;12.598;2022-11-04T14:57:22;8.40;99.90
64654;DHT22;51065;48.884;12.598;2022-11-04T14:59:48;8.30;99.90
64654;DHT22;51065;48.884;12.598;2022-11-04T15:02:28;8.30;99.90
64654;DHT22;51065;48.884;12.598;2022-11-04T15:05:00;8.30;99.90
64654;DHT22;51065;48.884;12.598;2022-11-04T15:07:30;8.30;99.90
64654;DHT22;51065;48.884;12.598;2022-11-04T15:09:57;8.30;99.90
64654;DHT22;51065;48.884;12.598;2022-11-04T15:12:23;8.30;99.90
64654;DHT22;51065;48.884;12.598;2022-11-04T15:18:12;8.30;99.90
64654;DHT22;51065;48.884;12.598;2022-11-04T15:20:54;8.30;99.90
64654;DHT22;51065;48.884;12.598;2022-11-04T15:23:32;8.30;99.90
64654;DHT22;51065;48.884;12.598;2022-11-04T15:25:59;8.30;99.90
64654;DHT22;51065;48.884;12.598;2022-11-04T15:28:30;8.20;99.90
64654;DHT22;51065;48.884;12.598;2022-11-04T15:31:00;8.20;99.90
64654;DHT22;51065;48.884;12.598;2022-11-04T15:33:26;8.20;99.90
64654;DHT22;51065;48.884;12.598;2022-11-04T15:35:53;8.20;99.90
64654;DHT22;51065;48.884;12.598;2022-11-04T15:38:19;8.10;99.90
64654;DHT22;51065;48.884;12.598;2022-11-04T15:40:45;8.10;99.90
64654;DHT22;51065;48.884;12.598;2022-11-04T15:43:13;8.10;99.90
64654;DHT22;51065;48.884;12.598;2022-11-04T15:53:26;8.10;99.90
64654;DHT22;51065;48.884;12.598;2022-11-04T15:55:52;8.10;99.90
64654;DHT22;51065;48.884;12.598;2022-11-04T15:58:18;8.00;99.90
64654;DHT22;51065;48.884;12.598;2022-11-04T16:00:54;8.00;99.90
64654;DHT22;51065;48.884;12.598;2022-11-04T16:03:21;8.00;99.90
64654;DHT22;51065;48.884;12.598;2022-11-04T16:06:06;8.00;99.90
64654;DHT22;51065;48.884;12.598;2022-11-04T16:08:32;8.00;99.90
64654;DHT22;51065;48.884;12.598;2022-11-04T16:11:18;7.90;99.90
64654;DHT22;51065;48.884;12.598;2022-11-04T16:13:45;7.90;99.90
64654;DHT22;51065;48.884;12.598;2022-11-04T16:16:19;7.90;99.90
64654;DHT22;51065;48.884;12.598;2022-11-04T16:19:03;7.90;99.90
64654;DHT22;51065;48.884;12.598;2022-11-04T16:21:30;7.90;99.90
64654;DHT22;51065;48.884;12.598;2022-11-04T16:24:14;7.90;99.90
64654;DHT22;51065;48.884;12.598;2022-11-04T16:26:42;7.90;99.90
64654;DHT22;51065;48.884;12.598;2022-11-04T16:29:18;7.80;99.90
64654;DHT22;51065;48.884;12.598;2022-11-04T16:31:44;7.90;99.90
64654;DHT22;51065;48.884;12.598;2022-11-04T16:34:11;7.80;99.90
64654;DHT22;51065;48.884;12.598;2022-11-04T16:36:37;7.90;99.90
64654;DHT22;51065;48.884;12.598;2022-11-04T16:39:04;7.80;99.90
64654;DHT22;51065;48.884;12.598;2022-11-04T16:41:38;7.80;99.90
64654;DHT22;51065;48.884;12.598;2022-11-04T16:44:08;7.90;99.90
64654;DHT22;51065;48.884;12.598;2022-11-04T16:46:38;7.90;99.90
64654;DHT22;51065;48.884;12.598;2022-11-04T16:49:05;7.90;99.90
64654;DHT22;51065;48.884;12.598;2022-11-04T16:51:32;7.80;99.90
64654;DHT22;51065;48.884;12.598;2022-11-04T16:53:58;7.80;99.90
64654;DHT22;51065;48.884;12.598;2022-11-04T16:56:25;7.80;99.90
64654;DHT22;51065;48.884;12.598;2022-11-04T16:58:52;7.80;99.90
64654;DHT22;51065;48.884;12.598;2022-11-04T17:01:18;7.80;99.90
64654;DHT22;51065;48.884;12.598;2022-11-04T17:03:44;7.70;99.90
64654;DHT22;51065;48.884;12.598;2022-11-04T17:06:11;7.80;99.90
64654;DHT22;51065;48.884;12.598;2022-11-04T17:08:38;7.80;99.90
64654;DHT22;51065;48.884;12.598;2022-11-04T17:11:04;7.70;99.90
64654;DHT22;51065;48.884;12.598;2022-11-04T17:13:30;7.70;99.90
64654;DHT22;51065;48.884;12.598;2022-11-04T17:15:56;7.70;99.90
64654;DHT22;51065;48.884;12.598;2022-11-04T17:18:22;7.80;99.90
64654;DHT22;51065;48.884;12.598;2022-11-04T17:20:51;7.80;99.90
64654;DHT22;51065;48.884;12.598;2022-11-04T17:23:17;7.80;99.90
64654;DHT22;51065;48.884;12.598;2022-11-04T17:25:44;7.80;99.90
64654;DHT22;51065;48.884;12.598;2022-11-04T17:28:10;7.80;99.90
64654;DHT22;51065;48.884;12.598;2022-11-04T17:30:36;7.80;99.90
64654;DHT22;51065;48.884;12.598;2022-11-04T17:33:02;7.80;99.90
64654;DHT22;51065;48.884;12.598;2022-11-04T17:35:43;7.80;99.90
64654;DHT22;51065;48.884;12.598;2022-11-04T17:38:10;7.80;99.90
64654;DHT22;51065;48.884;12.598;2022-11-04T17:40:36;7.80;99.90
64654;DHT22;51065;48.884;12.598;2022-11-04T17:43:22;7.80;99.90
64654;DHT22;51065;48.884;12.598;2022-11-04T17:46:06;7.80;99.90
64654;DHT22;51065;48.884;12.598;2022-11-04T17:48:55;7.80;99.90
64654;DHT22;51065;48.884;12.598;2022-11-04T17:51:21;7.90;99.90
64654;DHT22;51065;48.884;12.598;2022-11-04T17:53:47;7.90;99.90
64654;DHT22;51065;48.884;12.598;2022-11-04T17:56:14;7.90;99.90
64654;DHT22;51065;48.884;12.598;2022-11-04T17:58:40;7.90;99.90
64654;DHT22;51065;48.884;12.598;2022-11-04T18:01:06;7.80;99.90
64654;DHT22;51065;48.884;12.598;2022-11-04T18:03:32;7.80;99.90